sensor_id;sensor_type;location;lat;lon;timestamp;P1;durP1;ratioP1;P2;durP2;ratioP2
67597;SDS011;62026;39.230;9.122;2023-07-13T00:00:44;16.92;;;4.07;;
67597;SDS011;62026;39.230;9.122;2023-07-13T00:03:10;18.63;;;4.22;;
67597;SDS011;62026;39.230;9.122;2023-07-13T00:05:38;15.80;;;4.20;;
67597;SDS011;62026;39.230;9.122;2023-07-13T00:08:06;18.05;;;4.20;;
67597;SDS011;62026;39.230;9.122;2023-07-13T00:10:33;19.77;;;4.25;;
67597;SDS011;62026;39.230;9.122;2023-07-13T00:13:03;14.07;;;3.85;;
67597;SDS011;62026;39.230;9.122;2023-07-13T00:15:29;17.10;;;4.05;;
67597;SDS011;62026;39.230;9.122;2023-07-13T00:17:57;22.90;;;4.10;;
67597;SDS011;62026;39.230;9.122;2023-07-13T00:20:23;21.98;;;4.05;;
67597;SDS011;62026;39.230;9.122;2023-07-13T00:22:51;18.52;;;4.35;;
67597;SDS011;62026;39.230;9.122;2023-07-13T00:25:19;17.40;;;3.97;;
67597;SDS011;62026;39.230;9.122;2023-07-13T00:27:49;17.67;;;3.90;;
67597;SDS011;62026;39.230;9.122;2023-07-13T00:30:17;17.23;;;4.47;;
67597;SDS011;62026;39.230;9.122;2023-07-13T00:32:43;14.05;;;3.65;;
67597;SDS011;62026;39.230;9.122;2023-07-13T00:35:09;14.95;;;4.03;;
67597;SDS011;62026;39.230;9.122;2023-07-13T00:37:38;18.92;;;4.10;;
67597;SDS011;62026;39.230;9.122;2023-07-13T00:40:04;15.13;;;4.10;;
67597;SDS011;62026;39.230;9.122;2023-07-13T00:42:32;16.52;;;4.80;;
67597;SDS011;62026;39.230;9.122;2023-07-13T00:47:53;13.93;;;3.65;;
67597;SDS011;62026;39.230;9.122;2023-07-13T00:50:22;22.52;;;4.22;;
67597;SDS011;62026;39.230;9.122;2023-07-13T00:52:52;19.63;;;4.25;;
67597;SDS011;62026;39.230;9.122;2023-07-13T00:55:21;16.42;;;3.92;;
67597;SDS011;62026;39.230;9.122;2023-07-13T00:57:47;16.58;;;3.72;;
67597;SDS011;62026;39.230;9.122;2023-07-13T01:00:14;20.17;;;4.18;;
67597;SDS011;62026;39.230;9.122;2023-07-13T01:02:42;16.98;;;4.10;;
67597;SDS011;62026;39.230;9.122;2023-07-13T01:05:14;19.50;;;4.00;;
67597;SDS011;62026;39.230;9.122;2023-07-13T01:07:44;18.40;;;4.38;;
67597;SDS011;62026;39.230;9.122;2023-07-13T01:10:13;14.63;;;4.00;;
67597;SDS011;62026;39.230;9.122;2023-07-13T01:12:39;14.90;;;4.20;;
67597;SDS011;62026;39.230;9.122;2023-07-13T01:15:32;21.45;;;4.38;;
67597;SDS011;62026;39.230;9.122;2023-07-13T01:18:04;17.70;;;4.38;;
67597;SDS011;62026;39.230;9.122;2023-07-13T01:20:35;16.42;;;4.15;;
67597;SDS011;62026;39.230;9.122;2023-07-13T01:23:05;19.60;;;4.32;;
67597;SDS011;62026;39.230;9.122;2023-07-13T01:25:36;18.13;;;4.35;;
67597;SDS011;62026;39.230;9.122;2023-07-13T01:28:03;19.00;;;4.00;;
67597;SDS011;62026;39.230;9.122;2023-07-13T01:30:31;16.77;;;3.78;;
67597;SDS011;62026;39.230;9.122;2023-07-13T01:32:58;19.35;;;4.53;;
67597;SDS011;62026;39.230;9.122;2023-07-13T01:35:25;19.10;;;4.32;;
67597;SDS011;62026;39.230;9.122;2023-07-13T01:37:52;15.50;;;4.10;;
67597;SDS011;62026;39.230;9.122;2023-07-13T01:40:19;19.23;;;3.92;;
67597;SDS011;62026;39.230;9.122;2023-07-13T01:42:46;13.65;;;4.25;;
67597;SDS011;62026;39.230;9.122;2023-07-13T01:45:12;22.75;;;4.40;;
67597;SDS011;62026;39.230;9.122;2023-07-13T01:47:38;18.52;;;3.78;;
67597;SDS011;62026;39.230;9.122;2023-07-13T01:50:04;11.88;;;4.05;;
67597;SDS011;62026;39.230;9.122;2023-07-13T01:52:30;16.60;;;3.80;;
67597;SDS011;62026;39.230;9.122;2023-07-13T01:54:57;17.92;;;4.50;;
67597;SDS011;62026;39.230;9.122;2023-07-13T01:57:23;19.20;;;3.90;;
67597;SDS011;62026;39.230;9.122;2023-07-13T01:59:49;21.98;;;3.78;;
67597;SDS011;62026;39.230;9.122;2023-07-13T02:02:15;20.52;;;4.55;;
67597;SDS011;62026;39.230;9.122;2023-07-13T02:04:41;28.83;;;4.60;;
67597;SDS011;62026;39.230;9.122;2023-07-13T02:07:08;17.52;;;4.35;;
67597;SDS011;62026;39.230;9.122;2023-07-13T02:09:34;18.98;;;4.60;;
67597;SDS011;62026;39.230;9.122;2023-07-13T02:12:00;17.15;;;3.88;;
67597;SDS011;62026;39.230;9.122;2023-07-13T02:16:58;18.30;;;3.97;;
67597;SDS011;62026;39.230;9.122;2023-07-13T02:19:24;17.23;;;4.47;;
67597;SDS011;62026;39.230;9.122;2023-07-13T02:21:50;12.20;;;4.00;;
67597;SDS011;62026;39.230;9.122;2023-07-13T02:24:16;19.35;;;4.68;;
67597;SDS011;62026;39.230;9.122;2023-07-13T02:26:44;16.75;;;4.47;;
67597;SDS011;62026;39.230;9.122;2023-07-13T02:29:10;16.20;;;4.38;;
67597;SDS011;62026;39.230;9.122;2023-07-13T02:31:37;21.67;;;4.60;;
67597;SDS011;62026;39.230;9.122;2023-07-13T02:34:03;15.60;;;4.18;;
67597;SDS011;62026;39.230;9.122;2023-07-13T02:36:29;21.90;;;4.88;;
67597;SDS011;62026;39.230;9.122;2023-07-13T02:38:57;21.23;;;4.72;;
67597;SDS011;62026;39.230;9.122;2023-07-13T02:41:29;17.25;;;4.03;;
67597;SDS011;62026;39.230;9.122;2023-07-13T02:43:55;24.67;;;4.70;;
67597;SDS011;62026;39.230;9.122;2023-07-13T02:46:32;20.23;;;5.95;;
67597;SDS011;62026;39.230;9.122;2023-07-13T02:51:26;15.13;;;3.75;;
67597;SDS011;62026;39.230;9.122;2023-07-13T02:53:52;22.25;;;5.18;;
67597;SDS011;62026;39.230;9.122;2023-07-13T02:56:21;19.42;;;4.47;;
67597;SDS011;62026;39.230;9.122;2023-07-13T02:58:50;20.73;;;4.35;;
67597;SDS011;62026;39.230;9.122;2023-07-13T03:01:16;14.32;;;4.32;;
67597;SDS011;62026;39.230;9.122;2023-07-13T03:03:45;14.00;;;4.00;;
67597;SDS011;62026;39.230;9.122;2023-07-13T03:06:12;13.75;;;3.90;;
67597;SDS011;62026;39.230;9.122;2023-07-13T03:08:46;19.10;;;4.60;;
67597;SDS011;62026;39.230;9.122;2023-07-13T03:11:18;16.38;;;4.00;;
67597;SDS011;62026;39.230;9.122;2023-07-13T03:14:03;16.30;;;4.40;;
67597;SDS011;62026;39.230;9.122;2023-07-13T03:16:34;9.88;;;3.72;;
67597;SDS011;62026;39.230;9.122;2023-07-13T03:19:00;15.90;;;4.82;;
67597;SDS011;62026;39.230;9.122;2023-07-13T03:21:26;16.13;;;4.43;;
67597;SDS011;62026;39.230;9.122;2023-07-13T03:23:53;18.17;;;4.30;;
67597;SDS011;62026;39.230;9.122;2023-07-13T03:26:19;14.98;;;4.40;;
67597;SDS011;62026;39.230;9.122;2023-07-13T03:28:46;11.35;;;4.10;;
67597;SDS011;62026;39.230;9.122;2023-07-13T03:31:21;13.15;;;4.32;;
67597;SDS011;62026;39.230;9.122;2023-07-13T03:33:56;20.17;;;3.95;;
67597;SDS011;62026;39.230;9.122;2023-07-13T03:36:24;17.83;;;4.15;;
67597;SDS011;62026;39.230;9.122;2023-07-13T03:38:57;12.05;;;4.03;;
67597;SDS011;62026;39.230;9.122;2023-07-13T03:41:33;20.60;;;4.63;;
67597;SDS011;62026;39.230;9.122;2023-07-13T03:43:59;15.32;;;4.53;;
67597;SDS011;62026;39.230;9.122;2023-07-13T03:46:26;18.42;;;5.10;;
67597;SDS011;62026;39.230;9.122;2023-07-13T03:48:53;15.40;;;5.00;;
67597;SDS011;62026;39.230;9.122;2023-07-13T03:51:19;15.43;;;4.47;;
67597;SDS011;62026;39.230;9.122;2023-07-13T03:53:46;10.55;;;4.07;;
67597;SDS011;62026;39.230;9.122;2023-07-13T03:56:15;21.15;;;5.28;;
67597;SDS011;62026;39.230;9.122;2023-07-13T03:58:44;15.25;;;4.35;;
67597;SDS011;62026;39.230;9.122;2023-07-13T04:01:18;14.27;;;4.10;;
67597;SDS011;62026;39.230;9.122;2023-07-13T04:03:47;19.17;;;4.70;;
67597;SDS011;62026;39.230;9.122;2023-07-13T04:06:25;15.85;;;4.68;;
67597;SDS011;62026;39.230;9.122;2023-07-13T04:08:56;18.38;;;4.80;;
67597;SDS011;62026;39.230;9.122;2023-07-13T04:11:26;18.55;;;5.20;;
67597;SDS011;62026;39.230;9.122;2023-07-13T04:13:56;15.98;;;4.60;;
67597;SDS011;62026;39.230;9.122;2023-07-13T04:16:23;20.08;;;5.18;;
67597;SDS011;62026;39.230;9.122;2023-07-13T04:18:50;18.25;;;4.80;;
67597;SDS011;62026;39.230;9.122;2023-07-13T04:21:21;14.05;;;4.60;;
67597;SDS011;62026;39.230;9.122;2023-07-13T04:23:47;15.05;;;4.63;;
67597;SDS011;62026;39.230;9.122;2023-07-13T04:26:13;15.10;;;4.88;;
67597;SDS011;62026;39.230;9.122;2023-07-13T04:28:39;14.52;;;4.13;;
67597;SDS011;62026;39.230;9.122;2023-07-13T04:31:05;13.13;;;4.07;;
67597;SDS011;62026;39.230;9.122;2023-07-13T04:33:31;16.13;;;5.13;;
67597;SDS011;62026;39.230;9.122;2023-07-13T04:35:57;15.45;;;5.20;;
67597;SDS011;62026;39.230;9.122;2023-07-13T04:38:25;17.77;;;5.13;;
67597;SDS011;62026;39.230;9.122;2023-07-13T04:40:57;19.65;;;4.70;;
67597;SDS011;62026;39.230;9.122;2023-07-13T04:43:26;17.77;;;4.82;;
67597;SDS011;62026;39.230;9.122;2023-07-13T04:45:54;20.45;;;5.07;;
67597;SDS011;62026;39.230;9.122;2023-07-13T04:48:20;14.35;;;4.38;;
67597;SDS011;62026;39.230;9.122;2023-07-13T04:50:47;22.42;;;4.53;;
67597;SDS011;62026;39.230;9.122;2023-07-13T04:53:21;12.60;;;4.18;;
67597;SDS011;62026;39.230;9.122;2023-07-13T04:55:47;13.23;;;4.22;;
67597;SDS011;62026;39.230;9.122;2023-07-13T04:58:13;21.38;;;4.70;;
67597;SDS011;62026;39.230;9.122;2023-07-13T05:00:38;16.33;;;5.10;;
67597;SDS011;62026;39.230;9.122;2023-07-13T05:03:05;18.52;;;4.70;;
67597;SDS011;62026;39.230;9.122;2023-07-13T05:05:31;16.95;;;4.70;;
67597;SDS011;62026;39.230;9.122;2023-07-13T05:07:57;15.35;;;4.20;;
67597;SDS011;62026;39.230;9.122;2023-07-13T05:10:23;16.92;;;4.90;;
67597;SDS011;62026;39.230;9.122;2023-07-13T05:12:50;17.88;;;4.72;;
67597;SDS011;62026;39.230;9.122;2023-07-13T05:15:16;21.95;;;5.22;;
67597;SDS011;62026;39.230;9.122;2023-07-13T05:17:49;19.90;;;4.60;;
67597;SDS011;62026;39.230;9.122;2023-07-13T05:20:15;17.45;;;4.40;;
67597;SDS011;62026;39.230;9.122;2023-07-13T05:22:44;16.05;;;4.15;;
67597;SDS011;62026;39.230;9.122;2023-07-13T05:25:12;15.23;;;4.03;;
67597;SDS011;62026;39.230;9.122;2023-07-13T05:27:39;19.35;;;4.35;;
67597;SDS011;62026;39.230;9.122;2023-07-13T05:30:05;16.08;;;4.05;;
67597;SDS011;62026;39.230;9.122;2023-07-13T05:32:36;17.60;;;4.43;;
67597;SDS011;62026;39.230;9.122;2023-07-13T05:35:02;22.98;;;4.93;;
67597;SDS011;62026;39.230;9.122;2023-07-13T05:37:28;15.25;;;4.30;;
67597;SDS011;62026;39.230;9.122;2023-07-13T05:39:54;24.48;;;4.95;;
67597;SDS011;62026;39.230;9.122;2023-07-13T05:42:20;11.88;;;3.72;;
67597;SDS011;62026;39.230;9.122;2023-07-13T05:44:46;13.52;;;4.03;;
67597;SDS011;62026;39.230;9.122;2023-07-13T05:47:11;18.70;;;4.93;;
67597;SDS011;62026;39.230;9.122;2023-07-13T05:49:40;15.45;;;4.65;;
67597;SDS011;62026;39.230;9.122;2023-07-13T05:52:06;20.08;;;4.40;;
67597;SDS011;62026;39.230;9.122;2023-07-13T05:54:32;24.65;;;4.80;;
67597;SDS011;62026;39.230;9.122;2023-07-13T05:56:58;29.05;;;4.60;;
67597;SDS011;62026;39.230;9.122;2023-07-13T05:59:24;27.50;;;5.63;;
67597;SDS011;62026;39.230;9.122;2023-07-13T06:01:51;18.40;;;4.50;;
67597;SDS011;62026;39.230;9.122;2023-07-13T06:04:17;28.75;;;4.70;;
67597;SDS011;62026;39.230;9.122;2023-07-13T06:06:45;19.00;;;3.90;;
67597;SDS011;62026;39.230;9.122;2023-07-13T06:09:11;20.63;;;4.50;;
67597;SDS011;62026;39.230;9.122;2023-07-13T06:11:37;18.58;;;4.28;;
67597;SDS011;62026;39.230;9.122;2023-07-13T06:14:03;25.38;;;4.13;;
67597;SDS011;62026;39.230;9.122;2023-07-13T06:16:29;28.27;;;4.43;;
67597;SDS011;62026;39.230;9.122;2023-07-13T06:18:55;19.27;;;4.47;;
67597;SDS011;62026;39.230;9.122;2023-07-13T06:21:22;21.67;;;4.50;;
67597;SDS011;62026;39.230;9.122;2023-07-13T06:23:49;20.50;;;4.53;;
67597;SDS011;62026;39.230;9.122;2023-07-13T06:26:17;23.30;;;4.63;;
67597;SDS011;62026;39.230;9.122;2023-07-13T06:28:45;23.48;;;4.18;;
67597;SDS011;62026;39.230;9.122;2023-07-13T06:31:11;20.85;;;4.05;;
67597;SDS011;62026;39.230;9.122;2023-07-13T06:33:39;22.45;;;4.10;;
67597;SDS011;62026;39.230;9.122;2023-07-13T06:36:06;16.63;;;3.97;;
67597;SDS011;62026;39.230;9.122;2023-07-13T06:38:33;26.08;;;4.18;;
67597;SDS011;62026;39.230;9.122;2023-07-13T06:40:59;19.52;;;4.85;;
67597;SDS011;62026;39.230;9.122;2023-07-13T06:43:25;15.30;;;4.50;;
67597;SDS011;62026;39.230;9.122;2023-07-13T06:45:54;34.72;;;5.45;;
67597;SDS011;62026;39.230;9.122;2023-07-13T06:48:21;19.42;;;4.10;;
67597;SDS011;62026;39.230;9.122;2023-07-13T06:50:48;21.40;;;4.40;;
67597;SDS011;62026;39.230;9.122;2023-07-13T06:53:16;19.48;;;4.25;;
67597;SDS011;62026;39.230;9.122;2023-07-13T06:55:44;24.27;;;4.75;;
67597;SDS011;62026;39.230;9.122;2023-07-13T06:58:11;22.58;;;3.90;;
67597;SDS011;62026;39.230;9.122;2023-07-13T07:00:38;23.20;;;4.13;;
67597;SDS011;62026;39.230;9.122;2023-07-13T07:03:05;23.75;;;4.35;;
67597;SDS011;62026;39.230;9.122;2023-07-13T07:05:31;31.00;;;3.85;;
67597;SDS011;62026;39.230;9.122;2023-07-13T07:07:58;21.13;;;4.15;;
67597;SDS011;62026;39.230;9.122;2023-07-13T07:10:24;21.67;;;3.90;;
67597;SDS011;62026;39.230;9.122;2023-07-13T07:12:51;20.45;;;4.10;;
67597;SDS011;62026;39.230;9.122;2023-07-13T07:15:17;27.05;;;4.40;;
67597;SDS011;62026;39.230;9.122;2023-07-13T07:17:43;29.00;;;4.55;;
67597;SDS011;62026;39.230;9.122;2023-07-13T07:20:10;24.15;;;4.15;;
67597;SDS011;62026;39.230;9.122;2023-07-13T07:22:36;19.80;;;4.55;;
67597;SDS011;62026;39.230;9.122;2023-07-13T07:25:02;29.30;;;3.95;;
67597;SDS011;62026;39.230;9.122;2023-07-13T07:27:29;28.15;;;4.15;;
67597;SDS011;62026;39.230;9.122;2023-07-13T07:29:55;34.67;;;4.47;;
67597;SDS011;62026;39.230;9.122;2023-07-13T07:32:22;26.15;;;4.57;;
67597;SDS011;62026;39.230;9.122;2023-07-13T07:34:49;22.08;;;4.30;;
67597;SDS011;62026;39.230;9.122;2023-07-13T07:37:15;23.15;;;4.45;;
67597;SDS011;62026;39.230;9.122;2023-07-13T07:39:42;24.48;;;4.20;;
67597;SDS011;62026;39.230;9.122;2023-07-13T07:42:09;22.52;;;4.20;;
67597;SDS011;62026;39.230;9.122;2023-07-13T07:44:35;25.17;;;3.85;;
67597;SDS011;62026;39.230;9.122;2023-07-13T07:47:01;22.58;;;4.97;;
67597;SDS011;62026;39.230;9.122;2023-07-13T07:49:27;29.15;;;4.80;;
67597;SDS011;62026;39.230;9.122;2023-07-13T07:51:53;21.45;;;4.38;;
67597;SDS011;62026;39.230;9.122;2023-07-13T07:54:19;20.45;;;4.28;;
67597;SDS011;62026;39.230;9.122;2023-07-13T07:56:45;21.35;;;4.93;;
67597;SDS011;62026;39.230;9.122;2023-07-13T07:59:10;24.15;;;3.85;;
67597;SDS011;62026;39.230;9.122;2023-07-13T08:01:36;20.88;;;3.85;;
67597;SDS011;62026;39.230;9.122;2023-07-13T08:04:03;20.48;;;3.85;;
67597;SDS011;62026;39.230;9.122;2023-07-13T08:06:29;27.55;;;4.18;;
67597;SDS011;62026;39.230;9.122;2023-07-13T08:08:58;18.10;;;4.03;;
67597;SDS011;62026;39.230;9.122;2023-07-13T08:11:26;31.60;;;5.03;;
67597;SDS011;62026;39.230;9.122;2023-07-13T08:13:52;21.75;;;4.55;;
67597;SDS011;62026;39.230;9.122;2023-07-13T08:16:18;23.85;;;4.35;;
67597;SDS011;62026;39.230;9.122;2023-07-13T08:18:44;21.13;;;3.97;;
67597;SDS011;62026;39.230;9.122;2023-07-13T08:21:10;22.67;;;4.00;;
67597;SDS011;62026;39.230;9.122;2023-07-13T08:23:37;24.45;;;4.28;;
67597;SDS011;62026;39.230;9.122;2023-07-13T08:26:04;22.25;;;4.30;;
67597;SDS011;62026;39.230;9.122;2023-07-13T08:28:30;24.55;;;4.38;;
67597;SDS011;62026;39.230;9.122;2023-07-13T08:31:05;17.75;;;4.05;;
67597;SDS011;62026;39.230;9.122;2023-07-13T08:33:34;25.48;;;4.25;;
67597;SDS011;62026;39.230;9.122;2023-07-13T08:36:01;22.67;;;4.68;;
67597;SDS011;62026;39.230;9.122;2023-07-13T08:38:28;16.15;;;4.30;;
67597;SDS011;62026;39.230;9.122;2023-07-13T08:40:55;18.88;;;4.20;;
67597;SDS011;62026;39.230;9.122;2023-07-13T08:43:25;26.60;;;4.65;;
67597;SDS011;62026;39.230;9.122;2023-07-13T08:45:58;17.13;;;4.43;;
67597;SDS011;62026;39.230;9.122;2023-07-13T08:48:38;19.15;;;4.40;;
67597;SDS011;62026;39.230;9.122;2023-07-13T08:54:28;22.38;;;5.28;;
67597;SDS011;62026;39.230;9.122;2023-07-13T08:57:02;19.70;;;4.63;;
67597;SDS011;62026;39.230;9.122;2023-07-13T08:59:41;20.92;;;5.65;;
67597;SDS011;62026;39.230;9.122;2023-07-13T09:05:13;23.63;;;5.75;;
67597;SDS011;62026;39.230;9.122;2023-07-13T09:10:41;21.23;;;4.90;;
67597;SDS011;62026;39.230;9.122;2023-07-13T09:16:08;27.27;;;4.40;;
67597;SDS011;62026;39.230;9.122;2023-07-13T09:18:47;24.42;;;4.78;;
67597;SDS011;62026;39.230;9.122;2023-07-13T09:21:22;18.48;;;3.97;;
67597;SDS011;62026;39.230;9.122;2023-07-13T09:23:56;20.20;;;4.50;;
67597;SDS011;62026;39.230;9.122;2023-07-13T09:27:14;24.75;;;4.78;;
67597;SDS011;62026;39.230;9.122;2023-07-13T09:29:52;17.60;;;4.35;;
67597;SDS011;62026;39.230;9.122;2023-07-13T09:32:56;20.70;;;4.78;;
67597;SDS011;62026;39.230;9.122;2023-07-13T09:35:25;20.83;;;5.05;;
67597;SDS011;62026;39.230;9.122;2023-07-13T09:37:58;21.05;;;4.15;;
67597;SDS011;62026;39.230;9.122;2023-07-13T09:46:39;17.88;;;4.75;;
67597;SDS011;62026;39.230;9.122;2023-07-13T09:49:18;31.80;;;4.38;;
67597;SDS011;62026;39.230;9.122;2023-07-13T09:51:50;21.50;;;4.38;;
67597;SDS011;62026;39.230;9.122;2023-07-13T09:54:26;23.42;;;4.28;;
67597;SDS011;62026;39.230;9.122;2023-07-13T09:56:56;16.63;;;4.00;;
67597;SDS011;62026;39.230;9.122;2023-07-13T09:59:30;17.10;;;4.32;;
67597;SDS011;62026;39.230;9.122;2023-07-13T10:02:38;20.13;;;4.25;;
67597;SDS011;62026;39.230;9.122;2023-07-13T10:07:39;22.83;;;4.80;;
67597;SDS011;62026;39.230;9.122;2023-07-13T10:10:22;24.40;;;4.60;;
67597;SDS011;62026;39.230;9.122;2023-07-13T10:12:49;24.38;;;4.50;;
67597;SDS011;62026;39.230;9.122;2023-07-13T10:15:18;23.65;;;4.35;;
67597;SDS011;62026;39.230;9.122;2023-07-13T10:20:16;17.77;;;4.30;;
67597;SDS011;62026;39.230;9.122;2023-07-13T10:22:50;19.55;;;4.45;;
67597;SDS011;62026;39.230;9.122;2023-07-13T10:25:32;19.25;;;3.85;;
67597;SDS011;62026;39.230;9.122;2023-07-13T10:30:55;13.45;;;3.72;;
67597;SDS011;62026;39.230;9.122;2023-07-13T10:33:25;17.75;;;4.30;;
67597;SDS011;62026;39.230;9.122;2023-07-13T10:35:54;26.60;;;5.13;;
67597;SDS011;62026;39.230;9.122;2023-07-13T10:39:02;23.38;;;4.68;;
67597;SDS011;62026;39.230;9.122;2023-07-13T10:41:31;15.32;;;4.18;;
67597;SDS011;62026;39.230;9.122;2023-07-13T10:44:04;20.33;;;4.68;;
67597;SDS011;62026;39.230;9.122;2023-07-13T10:46:45;23.45;;;4.95;;
67597;SDS011;62026;39.230;9.122;2023-07-13T10:49:11;17.15;;;4.20;;
67597;SDS011;62026;39.230;9.122;2023-07-13T10:51:38;24.13;;;4.22;;
67597;SDS011;62026;39.230;9.122;2023-07-13T10:54:16;24.90;;;4.32;;
67597;SDS011;62026;39.230;9.122;2023-07-13T10:56:49;19.98;;;4.32;;
67597;SDS011;62026;39.230;9.122;2023-07-13T10:59:32;22.50;;;4.35;;
67597;SDS011;62026;39.230;9.122;2023-07-13T11:02:05;28.13;;;4.97;;
67597;SDS011;62026;39.230;9.122;2023-07-13T11:04:48;20.92;;;4.82;;
67597;SDS011;62026;39.230;9.122;2023-07-13T11:07:21;22.45;;;4.97;;
67597;SDS011;62026;39.230;9.122;2023-07-13T11:10:03;20.33;;;4.45;;
67597;SDS011;62026;39.230;9.122;2023-07-13T11:15:38;20.70;;;4.55;;
67597;SDS011;62026;39.230;9.122;2023-07-13T11:18:21;25.25;;;5.00;;
67597;SDS011;62026;39.230;9.122;2023-07-13T11:20:50;21.27;;;4.07;;
67597;SDS011;62026;39.230;9.122;2023-07-13T11:23:18;17.83;;;4.40;;
67597;SDS011;62026;39.230;9.122;2023-07-13T11:25:53;19.80;;;5.07;;
67597;SDS011;62026;39.230;9.122;2023-07-13T11:28:21;22.02;;;4.70;;
67597;SDS011;62026;39.230;9.122;2023-07-13T11:33:23;15.13;;;3.95;;
67597;SDS011;62026;39.230;9.122;2023-07-13T11:36:17;21.75;;;4.82;;
67597;SDS011;62026;39.230;9.122;2023-07-13T11:38:55;15.25;;;4.68;;
67597;SDS011;62026;39.230;9.122;2023-07-13T11:41:32;17.63;;;4.65;;
67597;SDS011;62026;39.230;9.122;2023-07-13T11:46:43;21.17;;;5.28;;
67597;SDS011;62026;39.230;9.122;2023-07-13T11:49:16;26.10;;;4.72;;
67597;SDS011;62026;39.230;9.122;2023-07-13T11:51:48;20.27;;;4.78;;
67597;SDS011;62026;39.230;9.122;2023-07-13T11:57:02;20.45;;;4.63;;
67597;SDS011;62026;39.230;9.122;2023-07-13T11:59:44;12.77;;;4.47;;
67597;SDS011;62026;39.230;9.122;2023-07-13T12:02:19;13.45;;;4.72;;
67597;SDS011;62026;39.230;9.122;2023-07-13T12:05:04;25.15;;;4.93;;
67597;SDS011;62026;39.230;9.122;2023-07-13T12:10:13;16.73;;;4.75;;
67597;SDS011;62026;39.230;9.122;2023-07-13T12:13:01;23.13;;;5.45;;
67597;SDS011;62026;39.230;9.122;2023-07-13T12:18:09;22.58;;;5.28;;
67597;SDS011;62026;39.230;9.122;2023-07-13T12:20:55;21.87;;;5.03;;
67597;SDS011;62026;39.230;9.122;2023-07-13T12:26:01;21.98;;;4.70;;
67597;SDS011;62026;39.230;9.122;2023-07-13T12:28:35;21.13;;;5.38;;
67597;SDS011;62026;39.230;9.122;2023-07-13T12:31:22;19.45;;;4.97;;
67597;SDS011;62026;39.230;9.122;2023-07-13T12:34:08;18.38;;;4.90;;
67597;SDS011;62026;39.230;9.122;2023-07-13T12:36:38;19.05;;;4.85;;
67597;SDS011;62026;39.230;9.122;2023-07-13T12:39:37;20.77;;;4.88;;
67597;SDS011;62026;39.230;9.122;2023-07-13T12:42:17;18.10;;;4.60;;
67597;SDS011;62026;39.230;9.122;2023-07-13T12:47:59;21.45;;;5.45;;
67597;SDS011;62026;39.230;9.122;2023-07-13T12:50:39;17.67;;;4.70;;
67597;SDS011;62026;39.230;9.122;2023-07-13T12:53:15;27.23;;;5.20;;
67597;SDS011;62026;39.230;9.122;2023-07-13T12:55:54;23.25;;;4.65;;
67597;SDS011;62026;39.230;9.122;2023-07-13T12:58:28;17.15;;;4.47;;
67597;SDS011;62026;39.230;9.122;2023-07-13T13:01:01;22.10;;;5.10;;
67597;SDS011;62026;39.230;9.122;2023-07-13T13:06:31;25.27;;;5.22;;
67597;SDS011;62026;39.230;9.122;2023-07-13T13:09:00;17.40;;;4.35;;
67597;SDS011;62026;39.230;9.122;2023-07-13T13:11:30;22.90;;;4.60;;
67597;SDS011;62026;39.230;9.122;2023-07-13T13:13:57;17.45;;;4.72;;
67597;SDS011;62026;39.230;9.122;2023-07-13T13:18:52;21.60;;;4.93;;
67597;SDS011;62026;39.230;9.122;2023-07-13T13:21:22;16.65;;;5.05;;
67597;SDS011;62026;39.230;9.122;2023-07-13T13:23:51;20.08;;;4.22;;
67597;SDS011;62026;39.230;9.122;2023-07-13T13:26:18;20.00;;;4.38;;
67597;SDS011;62026;39.230;9.122;2023-07-13T13:28:47;18.17;;;4.43;;
67597;SDS011;62026;39.230;9.122;2023-07-13T13:31:14;22.20;;;4.72;;
67597;SDS011;62026;39.230;9.122;2023-07-13T13:33:41;21.40;;;4.95;;
67597;SDS011;62026;39.230;9.122;2023-07-13T13:36:18;21.27;;;5.10;;
67597;SDS011;62026;39.230;9.122;2023-07-13T13:38:47;18.67;;;4.15;;
67597;SDS011;62026;39.230;9.122;2023-07-13T13:41:15;21.95;;;4.45;;
67597;SDS011;62026;39.230;9.122;2023-07-13T13:43:42;19.40;;;4.38;;
67597;SDS011;62026;39.230;9.122;2023-07-13T13:46:23;25.13;;;5.78;;
67597;SDS011;62026;39.230;9.122;2023-07-13T13:48:50;15.45;;;3.78;;
67597;SDS011;62026;39.230;9.122;2023-07-13T13:51:20;21.20;;;4.40;;
67597;SDS011;62026;39.230;9.122;2023-07-13T13:53:49;16.95;;;4.32;;
67597;SDS011;62026;39.230;9.122;2023-07-13T13:56:15;26.73;;;4.90;;
67597;SDS011;62026;39.230;9.122;2023-07-13T13:58:44;18.10;;;4.32;;
67597;SDS011;62026;39.230;9.122;2023-07-13T14:01:20;23.33;;;4.47;;
67597;SDS011;62026;39.230;9.122;2023-07-13T14:03:49;14.43;;;4.28;;
67597;SDS011;62026;39.230;9.122;2023-07-13T14:06:18;17.20;;;4.50;;
67597;SDS011;62026;39.230;9.122;2023-07-13T14:08:45;21.42;;;4.45;;
67597;SDS011;62026;39.230;9.122;2023-07-13T14:11:13;19.23;;;4.80;;
67597;SDS011;62026;39.230;9.122;2023-07-13T14:13:49;19.23;;;5.05;;
67597;SDS011;62026;39.230;9.122;2023-07-13T14:16:22;21.30;;;5.63;;
67597;SDS011;62026;39.230;9.122;2023-07-13T14:18:55;19.08;;;4.57;;
67597;SDS011;62026;39.230;9.122;2023-07-13T14:21:24;19.83;;;4.65;;
67597;SDS011;62026;39.230;9.122;2023-07-13T14:23:52;19.10;;;4.50;;
67597;SDS011;62026;39.230;9.122;2023-07-13T14:26:22;22.15;;;4.03;;
67597;SDS011;62026;39.230;9.122;2023-07-13T14:28:52;19.75;;;4.43;;
67597;SDS011;62026;39.230;9.122;2023-07-13T14:31:21;28.40;;;4.70;;
67597;SDS011;62026;39.230;9.122;2023-07-13T14:33:50;34.83;;;4.72;;
67597;SDS011;62026;39.230;9.122;2023-07-13T14:39:11;22.95;;;4.50;;
67597;SDS011;62026;39.230;9.122;2023-07-13T14:41:42;19.33;;;5.18;;
67597;SDS011;62026;39.230;9.122;2023-07-13T14:46:40;21.90;;;5.00;;
67597;SDS011;62026;39.230;9.122;2023-07-13T14:49:13;24.70;;;4.88;;
67597;SDS011;62026;39.230;9.122;2023-07-13T14:51:56;18.63;;;4.00;;
67597;SDS011;62026;39.230;9.122;2023-07-13T14:54:26;30.73;;;4.32;;
67597;SDS011;62026;39.230;9.122;2023-07-13T14:56:52;26.90;;;4.45;;
67597;SDS011;62026;39.230;9.122;2023-07-13T14:59:18;23.38;;;4.80;;
67597;SDS011;62026;39.230;9.122;2023-07-13T15:01:45;27.45;;;4.57;;
67597;SDS011;62026;39.230;9.122;2023-07-13T15:04:13;31.83;;;5.38;;
67597;SDS011;62026;39.230;9.122;2023-07-13T15:09:26;20.92;;;4.85;;
67597;SDS011;62026;39.230;9.122;2023-07-13T15:11:54;23.50;;;4.70;;
67597;SDS011;62026;39.230;9.122;2023-07-13T15:14:22;35.15;;;5.78;;
67597;SDS011;62026;39.230;9.122;2023-07-13T15:16:51;31.42;;;5.55;;
67597;SDS011;62026;39.230;9.122;2023-07-13T15:19:21;23.73;;;5.77;;
67597;SDS011;62026;39.230;9.122;2023-07-13T15:21:48;22.48;;;5.28;;
67597;SDS011;62026;39.230;9.122;2023-07-13T15:24:17;23.30;;;4.78;;
67597;SDS011;62026;39.230;9.122;2023-07-13T15:26:43;32.35;;;5.00;;
67597;SDS011;62026;39.230;9.122;2023-07-13T15:29:11;20.85;;;4.68;;
67597;SDS011;62026;39.230;9.122;2023-07-13T15:31:37;31.33;;;6.07;;
67597;SDS011;62026;39.230;9.122;2023-07-13T15:34:09;41.70;;;8.57;;
67597;SDS011;62026;39.230;9.122;2023-07-13T15:36:39;48.25;;;11.55;;
67597;SDS011;62026;39.230;9.122;2023-07-13T15:39:05;44.15;;;10.55;;
67597;SDS011;62026;39.230;9.122;2023-07-13T15:41:32;36.78;;;7.40;;
67597;SDS011;62026;39.230;9.122;2023-07-13T15:43:59;37.70;;;6.63;;
67597;SDS011;62026;39.230;9.122;2023-07-13T15:46:38;41.10;;;6.63;;
67597;SDS011;62026;39.230;9.122;2023-07-13T15:49:04;49.47;;;9.65;;
67597;SDS011;62026;39.230;9.122;2023-07-13T15:51:34;55.60;;;14.07;;
67597;SDS011;62026;39.230;9.122;2023-07-13T15:54:02;48.20;;;11.40;;
67597;SDS011;62026;39.230;9.122;2023-07-13T15:56:34;45.10;;;9.65;;
67597;SDS011;62026;39.230;9.122;2023-07-13T15:59:03;40.83;;;9.77;;